createdAt,value
2023-03-07T00:12:20.684Z,29.85
2023-03-07T00:27:22.641Z,29.70
2023-03-07T00:42:24.825Z,28.33
2023-03-07T00:57:26.754Z,29.83
2023-03-07T01:12:28.760Z,30.50
2023-03-07T01:27:30.722Z,36.45
2023-03-07T01:42:32.875Z,36.05
2023-03-07T01:57:39.578Z,45.35
2023-03-07T02:12:42.093Z,43.63
2023-03-07T02:27:45.245Z,43.25
2023-03-07T02:42:48.620Z,46.10
2023-03-07T02:57:50.542Z,41.95
2023-03-07T03:12:52.464Z,48.03
2023-03-07T03:27:54.386Z,45.75
2023-03-07T03:42:56.294Z,41.00
2023-03-07T03:57:59.159Z,40.30
2023-03-07T04:13:01.139Z,36.03
2023-03-07T04:28:03.110Z,34.03
2023-03-07T04:43:05.552Z,34.40
2023-03-07T04:58:11.020Z,31.05
2023-03-07T05:13:13.072Z,30.67
2023-03-07T05:28:17.039Z,29.98
2023-03-07T05:43:18.992Z,26.08
2023-03-07T05:58:20.941Z,27.63
2023-03-07T06:13:25.002Z,28.90
2023-03-07T06:28:27.667Z,26.05
2023-03-07T06:43:29.918Z,26.20
2023-03-07T06:58:31.837Z,25.20
2023-03-07T07:13:34.624Z,28.17
2023-03-07T07:28:36.626Z,28.20
2023-03-07T07:43:38.649Z,26.88
2023-03-07T07:58:40.934Z,25.05
2023-03-07T08:13:43.067Z,23.73
2023-03-07T08:28:45.221Z,20.95
2023-03-07T08:43:47.508Z,17.48
2023-03-07T08:58:52.977Z,15.30
2023-03-07T09:13:54.981Z,15.90
2023-03-07T09:28:57.032Z,15.13
2023-03-07T09:44:25.243Z,14.10
2023-03-07T09:59:45.411Z,13.17
2023-03-07T10:14:58.641Z,13.00
2023-03-07T10:30:06.460Z,14.50
2023-03-07T10:45:13.800Z,13.93
2023-03-07T11:00:18.754Z,13.27
2023-03-07T11:15:24.754Z,11.32
2023-03-07T11:31:08.540Z,12.32
2023-03-07T11:46:12.330Z,11.15
2023-03-07T12:01:16.998Z,11.73
2023-03-07T12:16:29.339Z,10.98
2023-03-07T12:31:39.094Z,10.07
2023-03-07T12:46:54.953Z,11.07
2023-03-07T13:02:04.496Z,9.50
2023-03-07T13:17:10.632Z,10.40
2023-03-07T13:32:50.019Z,8.93
2023-03-07T13:47:51.970Z,8.10
2023-03-07T14:02:54.881Z,7.85
2023-03-07T14:18:15.347Z,8.73
2023-03-07T14:33:18.178Z,8.98
2023-03-07T14:49:01.982Z,19.23
2023-03-07T15:04:19.551Z,7.72
2023-03-07T15:19:39.237Z,8.20
2023-03-07T15:34:41.481Z,8.88
2023-03-07T15:49:49.979Z,9.98
2023-03-07T16:04:53.806Z,9.50
2023-03-07T16:19:55.973Z,9.02
2023-03-07T16:34:57.954Z,8.18
2023-03-07T16:49:59.975Z,7.93
2023-03-07T17:05:01.922Z,9.73
2023-03-07T17:20:06.207Z,9.60
2023-03-07T17:35:09.913Z,9.10
2023-03-07T17:50:12.551Z,9.95
2023-03-07T18:05:14.494Z,9.52
2023-03-07T18:20:19.562Z,9.43
2023-03-07T18:35:23.544Z,9.88
2023-03-07T18:50:25.532Z,9.23
2023-03-07T19:05:27.611Z,9.15
2023-03-07T19:20:29.619Z,9.10
2023-03-07T19:35:31.878Z,9.38
2023-03-07T19:50:33.836Z,9.35
2023-03-07T20:05:41.405Z,9.02
2023-03-07T20:20:43.384Z,9.35
2023-03-07T20:35:45.400Z,10.45
2023-03-07T20:50:47.372Z,10.15
2023-03-07T21:05:57.199Z,10.85
2023-03-07T21:21:00.561Z,11.65
2023-03-07T21:36:04.333Z,9.93
2023-03-07T21:51:06.617Z,7.90
2023-03-07T22:06:10.799Z,8.23
2023-03-07T22:21:14.484Z,12.40
2023-03-07T22:36:16.398Z,6.72
2023-03-07T22:51:18.480Z,6.07
2023-03-07T23:06:21.835Z,4.90
2023-03-07T23:21:27.860Z,6.38
2023-03-07T23:36:31.179Z,7.53
2023-03-07T23:51:34.009Z,8.73
